Dades meteomassalio
Diari Summary for Gener 27, 2017 Units:  Metric    English   Both
« Previous Day
Next Day »
Diari Semanal Mensual Anual Personalitzat
  Maxima: Minima: Mijana:
Temperatura: 12.7 °C 5.4 °C 8.8 °C
Rosada: 8.9 °C 2.7 °C 6 °C
Humitat: 92 % 67 % 83 %
Velocitat del vent: 27.8 km/h 0.0 km/h 5.2 km/h
Racha vent: 27.8 km/h - -
Vent:- - SSE
Pressio: 1017.2 hPa 1009.0 hPa -
Pluja: 0.5 mm    
Historical Graphs
 
 
Tabular Data for Gener 27, 2017
Time Temperature Dew Point Pressure Wind Wind Speed Wind Gust Humidity Rainfall Rate (Hourly) solar Conditions
00:02 6.5 °C 3.5 °C 1017.2 hPa ESE 5.6 km/h   81 % 0.0 mm 0.0 W/m2 CLR
00:07 6.4 °C 3.4 °C 1017.2 hPa Calm     81 % 0.0 mm 0.0 W/m2 CLR
00:12 6.4 °C 3.4 °C 1016.8 hPa Calm     81 % 0.0 mm 0.0 W/m2 CLR
00:17 6.2 °C 3.2 °C 1016.8 hPa Calm     81 % 0.0 mm 0.0 W/m2 CLR
00:22 6.2 °C 3.2 °C 1016.8 hPa Calm     81 % 0.0 mm 0.0 W/m2 CLR
00:27 6.2 °C 3.4 °C 1016.8 hPa ESE 3.7 km/h 3.7 km/h 82 % 0.0 mm 0.0 W/m2 CLR
00:32 6.4 °C 3.6 °C 1016.8 hPa ESE 6.4 km/h 6.4 km/h 82 % 0.0 mm 0.0 W/m2 CLR
00:37 6.7 °C 3.6 °C 1016.8 hPa ESE 5.6 km/h 5.6 km/h 81 % 0.0 mm 0.0 W/m2 CLR
00:42 6.7 °C 3.6 °C 1016.8 hPa Calm     81 % 0.0 mm 0.0 W/m2 CLR
00:48 6.6 °C 3.6 °C 1016.8 hPa SE 3.2 km/h 3.2 km/h 81 % 0.0 mm 0.0 W/m2 CLR
00:53 6.7 °C 3.6 °C 1016.8 hPa SE 7.4 km/h 7.4 km/h 81 % 0.0 mm 0.0 W/m2 CLR
00:58 6.8 °C 3.6 °C 1016.8 hPa ESE 1.9 km/h   80 % 0.0 mm 0.0 W/m2 CLR
00:59 6.8 °C 3.4 °C 1016.8 hPa Calm     79 % 0.0 mm 0.0 W/m2 CLR
01:01 6.8 °C 3.4 °C 1016.8 hPa Calm     79 % 0.0 mm 0.0 W/m2 CLR
01:03 6.8 °C 3.4 °C 1016.8 hPa Calm     79 % 0.0 mm 0.0 W/m2 CLR
01:08 6.8 °C 3.4 °C 1016.8 hPa Calm     79 % 0.0 mm 0.0 W/m2 CLR
01:13 6.7 °C 3.4 °C 1016.8 hPa Calm     80 % 0.0 mm 0.0 W/m2 CLR
01:18 6.6 °C 3.3 °C 1016.8 hPa Calm     80 % 0.0 mm 0.0 W/m2 CLR
01:23 6.4 °C 3.2 °C 1016.8 hPa Calm     80 % 0.0 mm 0.0 W/m2 CLR
01:28 6.4 °C 3.4 °C 1016.8 hPa ESE 6.4 km/h 6.4 km/h 81 % 0.0 mm 0.0 W/m2 CLR
01:33 6.5 °C 3.3 °C 1016.8 hPa Calm     80 % 0.0 mm 0.0 W/m2 CLR
01:38 6.2 °C 3.0 °C 1016.8 hPa Calm     80 % 0.0 mm 0.0 W/m2 CLR
01:43 6.3 °C 3.3 °C 1016.8 hPa Calm     81 % 0.0 mm 0.0 W/m2 CLR
01:48 6.1 °C 3.1 °C 1016.8 hPa Calm     81 % 0.0 mm 0.0 W/m2 CLR
01:53 6.0 °C 3.0 °C 1016.8 hPa Calm     81 % 0.0 mm 0.0 W/m2 CLR
01:58 5.8 °C 3.0 °C 1016.8 hPa Calm     82 % 0.0 mm 0.0 W/m2 CLR
02:03 5.7 °C 2.9 °C 1016.8 hPa Calm     82 % 0.0 mm 0.0 W/m2 CLR
02:08 5.5 °C 2.7 °C 1016.8 hPa Calm     82 % 0.0 mm 0.0 W/m2 CLR
02:13 5.4 °C 2.9 °C 1016.5 hPa Calm     84 % 0.0 mm 0.0 W/m2 CLR
02:18 5.5 °C 3.0 °C 1016.5 hPa Calm     84 % 0.0 mm 0.0 W/m2 CLR
02:23 5.6 °C 2.9 °C 1016.5 hPa Calm     83 % 0.0 mm 0.0 W/m2 CLR
02:28 5.6 °C 3.1 °C 1016.5 hPa Calm     84 % 0.0 mm 0.0 W/m2 CLR
02:33 5.6 °C 3.1 °C 1016.5 hPa Calm     84 % 0.0 mm 0.0 W/m2 CLR
02:38 5.6 °C 3.1 °C 1016.5 hPa Calm     84 % 0.0 mm 0.0 W/m2 CLR
02:43 5.6 °C 3.1 °C 1016.5 hPa Calm     84 % 0.0 mm 0.0 W/m2 CLR
02:48 5.7 °C 3.2 °C 1016.5 hPa Calm     84 % 0.0 mm 0.0 W/m2 CLR
02:53 5.8 °C 3.3 °C 1016.1 hPa Calm     84 % 0.0 mm 0.0 W/m2 CLR
02:58 6.0 °C 3.3 °C 1016.1 hPa Calm     83 % 0.0 mm 0.0 W/m2 CLR
03:08 6.2 °C 3.5 °C 1016.1 hPa Calm     83 % 0.0 mm 0.0 W/m2 CLR
03:13 6.2 °C 3.6 °C 1016.1 hPa Calm     83 % 0.0 mm 0.0 W/m2 CLR
03:18 6.4 °C 3.7 °C 1015.8 hPa Calm     83 % 0.0 mm 0.0 W/m2 CLR
03:23 6.4 °C 3.8 °C 1015.8 hPa Calm     83 % 0.0 mm 0.0 W/m2 CLR
03:28 6.5 °C 4.0 °C 1015.8 hPa Calm     84 % 0.0 mm 0.0 W/m2 CLR
03:38 6.9 °C 4.2 °C 1015.8 hPa Calm     83 % 0.0 mm 0.0 W/m2 CLR
03:43 7.0 °C 4.3 °C 1015.8 hPa Calm     83 % 0.0 mm 0.0 W/m2 CLR
03:48 7.1 °C 4.4 °C 1015.5 hPa Calm     83 % 0.0 mm 0.0 W/m2 CLR
03:53 7.2 °C 4.5 °C 1015.5 hPa Calm     83 % 0.0 mm 0.0 W/m2 CLR
03:58 7.4 °C 4.7 °C 1015.5 hPa East 5.6 km/h 5.6 km/h 83 % 0.0 mm 0.0 W/m2 CLR
04:03 7.5 °C 4.8 °C 1015.5 hPa ESE 3.7 km/h 3.7 km/h 83 % 0.0 mm 0.0 W/m2 CLR
04:08 7.7 °C 4.9 °C 1015.5 hPa ESE 18.5 km/h 18.5 km/h 83 % 0.0 mm 0.0 W/m2 CLR
04:14 7.9 °C 5.2 °C 1015.1 hPa ESE 7.4 km/h 7.4 km/h 83 % 0.0 mm 0.0 W/m2 CLR
04:19 8.0 °C 5.1 °C 1015.1 hPa East 1.9 km/h   82 % 0.0 mm 0.0 W/m2 CLR
04:24 7.9 °C 5.2 °C 1015.1 hPa Calm     83 % 0.0 mm 0.0 W/m2 CLR
04:25 8.0 °C 5.3 °C 1015.1 hPa Calm     83 % 0.0 mm 0.0 W/m2 CLR
04:30 7.9 °C 5.2 °C 1015.1 hPa Calm   0.6 km/h 83 % 0.0 mm 0.0 W/m2 CLR
04:35 7.8 °C 5.3 °C 1015.1 hPa Calm     84 % 0.0 mm 0.0 W/m2 CLR
04:40 7.8 °C 5.3 °C 1015.1 hPa Calm     84 % 0.0 mm 0.0 W/m2 CLR
04:45 7.8 °C 5.4 °C 1015.1 hPa Calm     85 % 0.0 mm 0.0 W/m2 CLR
04:50 7.8 °C 5.4 °C 1014.8 hPa Calm   0.8 km/h 85 % 0.0 mm 0.0 W/m2 CLR
04:55 7.7 °C 5.5 °C 1014.8 hPa ENE 3.7 km/h 3.7 km/h 86 % 0.0 mm 0.0 W/m2 CLR
05:00 7.7 °C 5.5 °C 1014.8 hPa Calm     86 % 0.0 mm 0.0 W/m2 CLR
05:05 7.6 °C 5.6 °C 1014.8 hPa Calm     87 % 0.0 mm 0.0 W/m2 CLR
05:10 7.6 °C 5.6 °C 1014.8 hPa Calm     87 % 0.0 mm 0.0 W/m2 CLR
05:15 7.6 °C 5.6 °C 1014.8 hPa Calm     87 % 0.0 mm 0.0 W/m2 CLR
05:20 7.5 °C 5.5 °C 1014.8 hPa NE 3.7 km/h   87 % 0.0 mm 0.0 W/m2 CLR
05:25 7.4 °C 5.6 °C 1014.4 hPa NE 7.4 km/h 7.4 km/h 88 % 0.0 mm 0.0 W/m2 CLR
05:30 7.4 °C 5.6 °C 1014.4 hPa Calm   3.1 km/h 88 % 0.0 mm 0.0 W/m2 CLR
05:35 7.4 °C 5.6 °C 1014.4 hPa Calm     88 % 0.0 mm 0.0 W/m2 CLR
05:40 7.4 °C 5.6 °C 1014.4 hPa Calm     88 % 0.0 mm 0.0 W/m2 CLR
05:45 7.7 °C 6.0 °C 1014.4 hPa ESE 18.5 km/h 18.5 km/h 89 % 0.0 mm 0.0 W/m2 CLR
05:50 8.1 °C 6.4 °C 1014.4 hPa SE 11.1 km/h 11.1 km/h 89 % 0.0 mm 0.0 W/m2 CLR
05:55 8.2 °C 6.3 °C 1014.4 hPa SE 4.8 km/h 4.8 km/h 88 % 0.0 mm 0.0 W/m2 CLR
06:00 8.2 °C 6.3 °C 1014.4 hPa ESE 5.6 km/h 5.6 km/h 88 % 0.0 mm 0.0 W/m2 CLR
06:05 8.3 °C 6.4 °C 1014.4 hPa ESE 6.4 km/h 6.4 km/h 88 % 0.0 mm 0.0 W/m2 CLR
06:10 8.3 °C 6.4 °C 1014.4 hPa ESE 3.7 km/h 3.7 km/h 88 % 0.0 mm 0.0 W/m2 CLR
06:15 8.2 °C 6.4 °C 1014.4 hPa ESE 5.6 km/h   89 % 0.0 mm 0.0 W/m2 CLR
06:20 8.1 °C 6.4 °C 1014.4 hPa ESE 9.3 km/h 9.3 km/h 89 % 0.0 mm 0.0 W/m2 CLR
06:25 8.1 °C 6.5 °C 1014.4 hPa ESE 9.3 km/h 9.3 km/h 90 % 0.0 mm 0.0 W/m2 CLR
06:30 8.0 °C 6.4 °C 1014.4 hPa ESE 5.6 km/h 5.6 km/h 90 % 0.3 mm 0.0 W/m2 RA
06:35 7.9 °C 6.4 °C 1014.4 hPa Calm     90 % 0.3 mm 0.0 W/m2
06:40 7.9 °C 6.5 °C 1014.4 hPa Calm     91 % 0.3 mm 0.0 W/m2 CLR
06:45 7.8 °C 6.4 °C 1014.4 hPa ESE 3.7 km/h 3.7 km/h 91 % 0.3 mm 0.0 W/m2 CLR
06:50 7.8 °C 6.4 °C 1014.4 hPa Calm     91 % 0.5 mm 0.0 W/m2 RA
06:55 7.8 °C 6.4 °C 1014.1 hPa Calm     91 % 0.5 mm 0.0 W/m2 CLR
07:00 7.8 °C 6.6 °C 1014.1 hPa East 5.6 km/h 5.6 km/h 92 % 0.5 mm 0.0 W/m2 CLR
07:05 7.8 °C 6.6 °C 1013.8 hPa Calm     92 % 0.5 mm 0.0 W/m2 CLR
07:10 7.8 °C 6.6 °C 1013.8 hPa Calm     92 % 0.5 mm 0.0 W/m2 CLR
07:15 7.8 °C 6.6 °C 1013.8 hPa Calm     92 % 0.5 mm 0.0 W/m2 CLR
07:20 7.7 °C 6.5 °C 1013.8 hPa Calm     92 % 0.5 mm 0.0 W/m2 CLR
07:25 7.7 °C 6.5 °C 1013.4 hPa Calm     92 % 0.5 mm 0.0 W/m2 CLR
07:30 7.7 °C 6.5 °C 1013.4 hPa Calm     92 % 0.3 mm 0.0 W/m2 CLR
07:35 7.7 °C 6.4 °C 1013.4 hPa Calm     92 % 0.3 mm 0.0 W/m2 CLR
07:40 7.6 °C 6.4 °C 1013.4 hPa Calm     92 % 0.3 mm 0.0 W/m2 CLR
07:45 7.6 °C 6.4 °C 1013.4 hPa Calm     92 % 0.3 mm 0.0 W/m2 CLR
07:50 7.6 °C 6.4 °C 1013.4 hPa Calm     92 % 0.0 mm 0.0 W/m2 CLR
07:55 7.7 °C 6.4 °C 1013.4 hPa Calm     92 % 0.0 mm 0.0 W/m2 CLR
08:00 7.7 °C 6.5 °C 1013.4 hPa SE 5.6 km/h 5.6 km/h 92 % 0.0 mm 0.0 W/m2 CLR
08:05 7.8 °C 6.6 °C 1013.4 hPa Calm     92 % 0.0 mm 0.0 W/m2 OVC
08:10 7.8 °C 6.6 °C 1013.4 hPa Calm     92 % 0.0 mm 0.0 W/m2 OVC
08:15 7.9 °C 6.7 °C 1013.4 hPa Calm     92 % 0.0 mm 0.0 W/m2 OVC
08:20 7.9 °C 6.7 °C 1013.4 hPa Calm     92 % 0.3 mm 0.0 W/m2 RA
08:25 7.9 °C 6.7 °C 1013.4 hPa Calm     92 % 0.3 mm 0.0 W/m2
08:35 8.0 °C 6.8 °C 1013.4 hPa Calm     92 % 0.3 mm 9.0 W/m2 BKN
08:40 8.1 °C 6.9 °C 1013.1 hPa Calm     92 % 0.3 mm 11.0 W/m2 BKN
08:45 8.1 °C 6.9 °C 1013.4 hPa East 11.1 km/h 11.1 km/h 92 % 0.3 mm 7.0 W/m2 BKN
08:50 8.2 °C 6.8 °C 1013.4 hPa ESE 5.6 km/h 5.6 km/h 91 % 0.3 mm 14.0 W/m2 BKN
08:55 8.2 °C 6.8 °C 1013.1 hPa ESE 5.6 km/h 5.6 km/h 91 % 0.3 mm 30.0 W/m2 BKN
09:00 8.2 °C 6.8 °C 1013.1 hPa Calm     91 % 0.3 mm 28.0 W/m2 BKN
09:05 8.2 °C 6.8 °C 1013.1 hPa Calm     91 % 0.3 mm 25.0 W/m2 BKN
09:10 8.2 °C 6.8 °C 1013.1 hPa Calm     91 % 0.3 mm 30.0 W/m2 BKN
09:15 8.1 °C 6.7 °C 1013.1 hPa SE 6.4 km/h 6.4 km/h 91 % 0.3 mm 39.0 W/m2 BKN
09:20 8.2 °C 6.8 °C 1013.1 hPa SE 9.3 km/h 9.3 km/h 91 % 0.0 mm 30.0 W/m2 BKN
09:25 8.4 °C 7.0 °C 1013.1 hPa SSE 7.4 km/h 7.4 km/h 91 % 0.0 mm 56.0 W/m2 BKN
09:30 8.5 °C 6.9 °C 1013.1 hPa Calm     90 % 0.0 mm 69.0 W/m2 SCT
09:35 8.6 °C 7.1 °C 1013.1 hPa SSE 11.1 km/h 11.1 km/h 90 % 0.0 mm 114.0 W/m2 FEW
09:40 8.8 °C 7.1 °C 1013.1 hPa SE 5.6 km/h 5.6 km/h 89 % 0.0 mm 74.0 W/m2 CLR
09:45 8.8 °C 7.1 °C 1012.8 hPa SE 3.7 km/h 3.7 km/h 89 % 0.0 mm 70.0 W/m2 CLR
09:50 8.7 °C 7.0 °C 1013.1 hPa ESE 5.6 km/h 5.6 km/h 89 % 0.0 mm 69.0 W/m2 FEW
09:55 8.8 °C 7.1 °C 1013.1 hPa SE 7.4 km/h 7.4 km/h 89 % 0.0 mm 58.0 W/m2 FEW
10:00 8.9 °C 7.1 °C 1013.1 hPa SSE 9.3 km/h 9.3 km/h 88 % 0.0 mm 53.0 W/m2 SCT
10:05 9.1 °C 7.1 °C 1013.1 hPa Calm     87 % 0.0 mm 56.0 W/m2 SCT
10:10 9.2 °C 7.0 °C 1013.1 hPa Calm     86 % 0.0 mm 60.0 W/m2 SCT
10:15 9.3 °C 6.9 °C 1013.1 hPa Calm     85 % 0.0 mm 67.0 W/m2 SCT
10:20 9.3 °C 6.9 °C 1013.1 hPa SE 3.7 km/h 3.7 km/h 85 % 0.0 mm 65.0 W/m2 SCT
10:25 9.3 °C 6.8 °C 1013.1 hPa SE 7.4 km/h 7.4 km/h 84 % 0.0 mm 62.0 W/m2 SCT
10:30 9.4 °C 6.8 °C 1013.1 hPa Calm     84 % 0.0 mm 60.0 W/m2 SCT
10:35 9.4 °C 6.8 °C 1013.1 hPa Calm     84 % 0.0 mm 67.0 W/m2 SCT
10:40 9.4 °C 6.7 °C 1013.1 hPa SE 5.6 km/h 5.6 km/h 83 % 0.0 mm 79.0 W/m2 FEW
10:46 9.5 °C 6.8 °C 1012.8 hPa SSE 13.0 km/h 13.0 km/h 83 % 0.0 mm 88.0 W/m2 FEW
10:51 9.6 °C 6.9 °C 1012.8 hPa SE 13.0 km/h 13.0 km/h 83 % 0.0 mm 74.0 W/m2 FEW
10:56 9.7 °C 6.7 °C 1012.8 hPa SE 18.5 km/h 18.5 km/h 82 % 0.0 mm 54.0 W/m2 FEW
11:01 9.7 °C 6.7 °C 1012.8 hPa SE 9.3 km/h 9.3 km/h 82 % 0.0 mm 53.0 W/m2 SCT
11:06 9.7 °C 6.7 °C 1012.8 hPa SE 9.7 km/h 9.7 km/h 82 % 0.0 mm 54.0 W/m2 SCT
11:10 9.7 °C 6.7 °C 1012.8 hPa SE 13.0 km/h 13.0 km/h 82 % 0.0 mm 58.0 W/m2 SCT
11:16 9.7 °C 6.7 °C 1012.8 hPa SSE 16.7 km/h 16.7 km/h 82 % 0.0 mm 81.0 W/m2 SCT
11:20 9.8 °C 6.8 °C 1012.8 hPa SE 14.8 km/h 14.8 km/h 82 % 0.0 mm 102.0 W/m2 FEW
11:25 9.9 °C 6.8 °C 1012.8 hPa SE 9.3 km/h 9.3 km/h 81 % 0.0 mm 84.0 W/m2 CLR
11:30 9.9 °C 6.8 °C 1012.4 hPa SE 5.6 km/h 5.6 km/h 81 % 0.0 mm 77.0 W/m2 CLR
11:35 9.9 °C 6.8 °C 1012.4 hPa Calm     81 % 0.0 mm 72.0 W/m2 FEW
11:40 9.9 °C 6.8 °C 1012.8 hPa Calm     81 % 0.0 mm 72.0 W/m2 FEW
11:45 10.0 °C 6.9 °C 1012.4 hPa Calm     81 % 0.0 mm 88.0 W/m2 FEW
11:50 10.0 °C 6.9 °C 1012.8 hPa Calm     81 % 0.0 mm 172.0 W/m2 CLR
11:55 10.1 °C 7.0 °C 1012.4 hPa Calm     81 % 0.0 mm 172.0 W/m2 CLR
12:00 10.3 °C 7.0 °C 1012.4 hPa Calm     80 % 0.0 mm 128.0 W/m2 CLR
12:05 10.4 °C 6.9 °C 1012.4 hPa Calm     79 % 0.0 mm 118.0 W/m2 CLR
12:11 10.5 °C 7.0 °C 1012.4 hPa Calm     79 % 0.0 mm 88.0 W/m2 CLR
12:16 10.6 °C 7.1 °C 1012.1 hPa NW 1.9 km/h   79 % 0.0 mm 77.0 W/m2 CLR
12:21 10.6 °C 7.1 °C 1012.1 hPa Calm     79 % 0.0 mm 72.0 W/m2 FEW
12:26 10.6 °C 6.9 °C 1012.1 hPa ENE 7.4 km/h   78 % 0.0 mm 93.0 W/m2 FEW
12:31 10.6 °C 6.9 °C 1012.1 hPa ENE 4.8 km/h 4.8 km/h 78 % 0.0 mm 93.0 W/m2 CLR
12:36 10.7 °C 7.1 °C 1012.1 hPa SSE 7.4 km/h   78 % 0.0 mm 81.0 W/m2 CLR
12:41 10.9 °C 7.0 °C 1012.1 hPa Calm     77 % 0.0 mm 72.0 W/m2 FEW
12:46 11.0 °C 6.9 °C 1012.1 hPa Calm     76 % 0.0 mm 51.0 W/m2 FEW
12:51 11.1 °C 6.8 °C 1012.1 hPa SSE 9.7 km/h 9.7 km/h 75 % 0.0 mm 44.0 W/m2 SCT
12:56 11.2 °C 6.9 °C 1011.7 hPa SSE 9.3 km/h 9.3 km/h 75 % 0.0 mm 56.0 W/m2 SCT
13:01 11.2 °C 6.9 °C 1011.7 hPa South 5.6 km/h 5.6 km/h 75 % 0.0 mm 76.0 W/m2 SCT
13:06 11.2 °C 6.9 °C 1011.7 hPa South 4.8 km/h 4.8 km/h 75 % 0.0 mm 88.0 W/m2 FEW
13:11 11.2 °C 6.9 °C 1011.4 hPa SSE 5.6 km/h 5.6 km/h 75 % 0.0 mm 95.0 W/m2 FEW
13:16 11.2 °C 7.2 °C 1011.4 hPa SE 7.4 km/h 7.4 km/h 76 % 0.0 mm 113.0 W/m2 CLR
13:21 11.2 °C 7.2 °C 1011.1 hPa SE 7.4 km/h 7.4 km/h 76 % 0.0 mm 153.0 W/m2 CLR
13:26 11.3 °C 7.4 °C 1011.1 hPa ESE 5.6 km/h 5.6 km/h 77 % 0.0 mm 199.0 W/m2 CLR
13:31 11.3 °C 7.4 °C 1011.1 hPa ESE 13.0 km/h 13.0 km/h 77 % 0.0 mm 183.0 W/m2 CLR
13:36 11.4 °C 7.5 °C 1010.7 hPa ESE 11.1 km/h 11.1 km/h 77 % 0.0 mm 183.0 W/m2 CLR
13:41 11.4 °C 7.5 °C 1010.7 hPa ESE 11.1 km/h 11.1 km/h 77 % 0.0 mm 186.0 W/m2 CLR
13:46 11.4 °C 7.7 °C 1010.7 hPa ESE 5.6 km/h 5.6 km/h 78 % 0.0 mm 207.0 W/m2 CLR
13:51 11.4 °C 7.5 °C 1010.7 hPa SE 16.7 km/h 16.7 km/h 77 % 0.0 mm 306.0 W/m2 CLR
13:56 11.4 °C 7.7 °C 1010.7 hPa SE 7.4 km/h 7.4 km/h 78 % 0.0 mm 236.0 W/m2 CLR
14:01 11.3 °C 7.8 °C 1010.7 hPa ESE 9.7 km/h 9.7 km/h 79 % 0.0 mm 230.0 W/m2 CLR
14:06 11.2 °C 7.7 °C 1010.7 hPa ESE 9.7 km/h 9.7 km/h 79 % 0.0 mm 225.0 W/m2 CLR
14:11 11.2 °C 7.8 °C 1010.4 hPa ESE 11.1 km/h 11.1 km/h 80 % 0.0 mm 234.0 W/m2 CLR
14:16 11.1 °C 7.9 °C 1010.4 hPa ESE 13.0 km/h 13.0 km/h 81 % 0.0 mm 241.0 W/m2 CLR
14:21 11.1 °C 7.9 °C 1010.0 hPa SE 18.5 km/h 18.5 km/h 81 % 0.0 mm 225.0 W/m2 CLR
14:26 11.2 °C 8.0 °C 1010.0 hPa ESE 13.0 km/h 13.0 km/h 81 % 0.0 mm 301.0 W/m2 CLR
14:31 11.3 °C 8.4 °C 1010.0 hPa ESE 9.3 km/h 9.3 km/h 82 % 0.0 mm 352.0 W/m2 CLR
14:36 11.5 °C 8.3 °C 1009.7 hPa ESE 9.3 km/h 9.3 km/h 81 % 0.0 mm 355.0 W/m2 CLR
14:41 11.6 °C 8.4 °C 1009.7 hPa ESE 9.3 km/h 9.3 km/h 81 % 0.0 mm 336.0 W/m2 CLR
14:46 11.6 °C 8.3 °C 1009.7 hPa ESE 13.0 km/h 13.0 km/h 80 % 0.0 mm 272.0 W/m2 CLR
14:51 11.7 °C 8.3 °C 1009.7 hPa SE 9.3 km/h 9.3 km/h 80 % 0.0 mm 334.0 W/m2 CLR
14:56 11.7 °C 8.4 °C 1009.7 hPa ESE 16.7 km/h 16.7 km/h 80 % 0.0 mm 301.0 W/m2 CLR
15:01 11.7 °C 8.3 °C 1009.7 hPa ESE 14.8 km/h 14.8 km/h 80 % 0.0 mm 413.0 W/m2 CLR
15:06 12.0 °C 8.7 °C 1009.4 hPa ESE 13.0 km/h 13.0 km/h 80 % 0.0 mm 325.0 W/m2 CLR
15:11 11.9 °C 8.3 °C 1009.4 hPa ESE 11.1 km/h 11.1 km/h 79 % 0.0 mm 301.0 W/m2 CLR
15:16 12.0 °C 8.4 °C 1009.4 hPa ESE 11.1 km/h 11.1 km/h 79 % 0.0 mm 237.0 W/m2 CLR
15:21 12.0 °C 8.1 °C 1009.4 hPa SE 13.0 km/h 13.0 km/h 77 % 0.0 mm 218.0 W/m2 CLR
15:26 12.0 °C 8.3 °C 1009.4 hPa ESE 13.0 km/h 13.0 km/h 78 % 0.0 mm 227.0 W/m2 CLR
15:31 12.0 °C 8.1 °C 1009.4 hPa ESE 11.1 km/h 11.1 km/h 77 % 0.0 mm 229.0 W/m2 CLR
15:36 12.1 °C 8.3 °C 1009.4 hPa ESE 6.4 km/h 6.4 km/h 78 % 0.0 mm 278.0 W/m2 CLR
15:41 12.1 °C 8.5 °C 1009.4 hPa East 5.6 km/h   79 % 0.0 mm 262.0 W/m2 CLR
15:46 12.2 °C 8.6 °C 1009.4 hPa ESE 7.4 km/h 7.4 km/h 79 % 0.0 mm 262.0 W/m2 CLR
15:51 12.3 °C 8.4 °C 1009.4 hPa East 7.4 km/h 7.4 km/h 77 % 0.0 mm 241.0 W/m2 CLR
15:56 12.4 °C 8.3 °C 1009.4 hPa Calm     76 % 0.0 mm 221.0 W/m2 CLR
16:01 12.6 °C 8.5 °C 1009.4 hPa Calm     76 % 0.0 mm 251.0 W/m2 CLR
16:06 12.7 °C 8.8 °C 1009.4 hPa East 1.9 km/h 1.9 km/h 77 % 0.0 mm 134.0 W/m2 CLR
16:16 12.6 °C 8.9 °C 1009.4 hPa Calm     78 % 0.0 mm 250.0 W/m2 CLR
16:21 12.6 °C 8.9 °C 1009.4 hPa Calm     78 % 0.0 mm 185.0 W/m2 CLR
16:26 12.6 °C 8.7 °C 1009.4 hPa Calm     77 % 0.0 mm 116.0 W/m2 CLR
16:31 12.6 °C 8.5 °C 1009.4 hPa Calm     76 % 0.0 mm 90.0 W/m2 CLR
16:36 12.5 °C 8.4 °C 1009.4 hPa Calm     76 % 0.0 mm 72.0 W/m2 CLR
16:41 12.5 °C 7.2 °C 1009.4 hPa SE 9.3 km/h 9.3 km/h 70 % 0.0 mm 62.0 W/m2 FEW
16:46 12.6 °C 6.8 °C 1009.4 hPa SSE 9.3 km/h 9.3 km/h 68 % 0.0 mm 54.0 W/m2 SCT
16:51 12.6 °C 6.7 °C 1009.4 hPa SSE 11.3 km/h 11.3 km/h 67 % 0.0 mm 54.0 W/m2 SCT
16:56 12.6 °C 6.7 °C 1009.4 hPa SSE 5.6 km/h 5.6 km/h 67 % 0.0 mm 111.0 W/m2 SCT
17:01 12.7 °C 6.7 °C 1009.4 hPa SSE 11.1 km/h 11.1 km/h 67 % 0.0 mm 127.0 W/m2 FEW
17:06 12.6 °C 6.7 °C 1009.4 hPa SSE 8.0 km/h 8.0 km/h 67 % 0.0 mm 93.0 W/m2 CLR
17:11 12.5 °C 6.8 °C 1009.4 hPa SSE 11.3 km/h 11.3 km/h 68 % 0.0 mm 67.0 W/m2 FEW
17:16 12.3 °C 6.6 °C 1009.4 hPa SSE 9.3 km/h 9.3 km/h 68 % 0.0 mm 63.0 W/m2 SCT
17:22 12.3 °C 6.6 °C 1009.0 hPa SSE 9.3 km/h 9.3 km/h 68 % 0.0 mm 60.0 W/m2 SCT
17:26 12.2 °C 6.5 °C 1009.4 hPa SSE 19.3 km/h 19.3 km/h 68 % 0.0 mm 49.0 W/m2 SCT
17:32 12.2 °C 6.4 °C 1009.4 hPa SSE 11.3 km/h 11.3 km/h 68 % 0.0 mm 42.0 W/m2 BKN
17:37 12.0 °C 6.5 °C 1009.4 hPa SSE 8.0 km/h 8.0 km/h 69 % 0.0 mm 33.0 W/m2 BKN
17:47 11.8 °C 6.3 °C 1009.4 hPa SSE 7.4 km/h 7.9 km/h 69 % 0.0 mm 23.0 W/m2 BKN
17:52 11.7 °C 6.4 °C 1009.4 hPa SSE 13.0 km/h 13.0 km/h 70 % 0.0 mm 18.0 W/m2 BKN
17:57 11.6 °C 6.5 °C 1009.4 hPa SSE 5.6 km/h 5.6 km/h 71 % 0.0 mm 12.0 W/m2 BKN
18:02 11.4 °C 6.3 °C 1009.4 hPa SE 5.6 km/h 5.6 km/h 71 % 0.0 mm 7.0 W/m2 BKN
18:07 11.2 °C 6.5 °C 1009.7 hPa SE 9.7 km/h 9.7 km/h 73 % 0.0 mm 0.0 W/m2 OVC
18:12 11.1 °C 6.6 °C 1009.4 hPa SSE 11.1 km/h 11.1 km/h 74 % 0.0 mm 0.0 W/m2 OVC
18:17 11.0 °C 6.6 °C 1009.4 hPa SSE 13.0 km/h 13.0 km/h 74 % 0.0 mm 0.0 W/m2 OVC
18:22 10.9 °C 6.7 °C 1009.4 hPa SE 13.0 km/h 13.0 km/h 75 % 0.0 mm 0.0 W/m2 CLR
18:27 10.8 °C 6.6 °C 1009.7 hPa SE 5.6 km/h 6.0 km/h 75 % 0.0 mm 0.0 W/m2 CLR
18:32 10.7 °C 6.7 °C 1009.7 hPa SSE 7.4 km/h 7.4 km/h 76 % 0.0 mm 0.0 W/m2 CLR
18:37 10.6 °C 6.5 °C 1009.7 hPa SSE 5.6 km/h 5.6 km/h 76 % 0.0 mm 0.0 W/m2 CLR
18:42 10.5 °C 6.4 °C 1009.7 hPa SE 14.8 km/h 14.8 km/h 76 % 0.0 mm 0.0 W/m2 CLR
18:47 10.3 °C 6.5 °C 1009.7 hPa SE 8.0 km/h 8.0 km/h 77 % 0.0 mm 0.0 W/m2 CLR
18:52 10.1 °C 6.4 °C 1010.0 hPa SE 9.3 km/h 9.3 km/h 78 % 0.0 mm 0.0 W/m2 CLR
18:57 10.0 °C 6.5 °C 1010.0 hPa SE 7.4 km/h 7.4 km/h 79 % 0.0 mm 0.0 W/m2 CLR
19:02 9.9 °C 6.4 °C 1010.0 hPa SE 9.7 km/h 9.7 km/h 79 % 0.0 mm 0.0 W/m2 CLR
19:07 9.8 °C 6.6 °C 1010.0 hPa SE 11.1 km/h 11.1 km/h 80 % 0.0 mm 0.0 W/m2 CLR
19:12 9.8 °C 6.5 °C 1010.0 hPa SE 11.1 km/h 11.1 km/h 80 % 0.0 mm 0.0 W/m2 CLR
19:17 9.7 °C 6.4 °C 1010.0 hPa SE 7.4 km/h 7.4 km/h 80 % 0.0 mm 0.0 W/m2 CLR
19:22 9.7 °C 6.4 °C 1010.0 hPa Calm     80 % 0.0 mm 0.0 W/m2 CLR
19:27 9.6 °C 6.4 °C 1010.0 hPa Calm     81 % 0.0 mm 0.0 W/m2 CLR
19:32 9.4 °C 6.3 °C 1010.4 hPa Calm     81 % 0.0 mm 0.0 W/m2 CLR
19:37 9.3 °C 6.2 °C 1010.4 hPa Calm     81 % 0.0 mm 0.0 W/m2 CLR
19:42 9.1 °C 6.0 °C 1010.4 hPa Calm     81 % 0.0 mm 0.0 W/m2 CLR
19:47 8.8 °C 5.9 °C 1010.4 hPa Calm     82 % 0.0 mm 0.0 W/m2 CLR
19:52 8.6 °C 6.1 °C 1010.4 hPa Calm     84 % 0.0 mm 0.0 W/m2 CLR
19:57 8.5 °C 5.9 °C 1010.4 hPa Calm     84 % 0.0 mm 0.0 W/m2 CLR
20:02 8.4 °C 5.9 °C 1010.4 hPa Calm     84 % 0.0 mm 0.0 W/m2 CLR
20:07 8.4 °C 6.0 °C 1010.4 hPa Calm     85 % 0.0 mm 0.0 W/m2 CLR
20:12 8.1 °C 5.6 °C 1010.4 hPa Calm     84 % 0.0 mm 0.0 W/m2 CLR
20:17 7.8 °C 5.4 °C 1010.4 hPa Calm     85 % 0.0 mm 0.0 W/m2 CLR
20:22 7.6 °C 5.2 °C 1010.7 hPa Calm     85 % 0.0 mm 0.0 W/m2 CLR
20:27 7.5 °C 5.3 °C 1010.7 hPa Calm     86 % 0.0 mm 0.0 W/m2 CLR
20:32 7.4 °C 5.4 °C 1010.7 hPa Calm     87 % 0.0 mm 0.0 W/m2 CLR
20:37 7.0 °C 4.8 °C 1010.7 hPa Calm     86 % 0.0 mm 0.0 W/m2 CLR
20:42 6.7 °C 4.6 °C 1010.7 hPa Calm     86 % 0.0 mm 0.0 W/m2 CLR
20:47 6.6 °C 4.6 °C 1010.7 hPa Calm     87 % 0.0 mm 0.0 W/m2 CLR
20:52 6.3 °C 4.5 °C 1010.7 hPa Calm     88 % 0.0 mm 0.0 W/m2 CLR
20:57 6.3 °C 4.6 °C 1010.7 hPa Calm     89 % 0.0 mm 0.0 W/m2 CLR
21:02 6.2 °C 4.5 °C 1010.7 hPa Calm     89 % 0.0 mm 0.0 W/m2 CLR
21:07 6.1 °C 4.4 °C 1010.7 hPa Calm     89 % 0.0 mm 0.0 W/m2 CLR
21:12 6.1 °C 4.6 °C 1010.7 hPa Calm     90 % 0.0 mm 0.0 W/m2 CLR
21:17 6.1 °C 4.4 °C 1011.1 hPa Calm     89 % 0.0 mm 0.0 W/m2 CLR
21:22 5.8 °C 4.1 °C 1011.1 hPa Calm     89 % 0.0 mm 0.0 W/m2 CLR
21:27 5.7 °C 4.2 °C 1011.1 hPa Calm     90 % 0.0 mm 0.0 W/m2 CLR
21:32 5.7 °C 4.2 °C 1011.1 hPa Calm     90 % 0.0 mm 0.0 W/m2 CLR
21:37 5.7 °C 4.2 °C 1011.1 hPa WNW 5.6 km/h 5.6 km/h 90 % 0.0 mm 0.0 W/m2 CLR
21:42 6.7 °C 5.5 °C 1011.1 hPa West 9.3 km/h 9.3 km/h 92 % 0.0 mm 0.0 W/m2 CLR
21:47 6.8 °C 5.3 °C 1011.1 hPa Calm     90 % 0.0 mm 0.0 W/m2 CLR
21:52 6.8 °C 5.3 °C 1011.1 hPa WSW 4.8 km/h 4.8 km/h 90 % 0.0 mm 0.0 W/m2 CLR
21:57 6.8 °C 5.3 °C 1011.1 hPa Calm     90 % 0.0 mm 0.0 W/m2 CLR
22:02 7.0 °C 5.4 °C 1011.4 hPa Calm     90 % 0.0 mm 0.0 W/m2 CLR
22:07 7.1 °C 5.6 °C 1011.4 hPa Calm     90 % 0.0 mm 0.0 W/m2 CLR
22:12 7.0 °C 5.3 °C 1011.4 hPa Calm     89 % 0.0 mm 0.0 W/m2 CLR
22:17 7.1 °C 5.4 °C 1011.4 hPa Calm     89 % 0.0 mm 0.0 W/m2 CLR
22:22 7.1 °C 5.4 °C 1011.4 hPa Calm     89 % 0.0 mm 0.0 W/m2 CLR
22:27 7.1 °C 5.4 °C 1011.4 hPa Calm     89 % 0.0 mm 0.0 W/m2 CLR
22:32 7.1 °C 5.4 °C 1011.7 hPa Calm     89 % 0.0 mm 0.0 W/m2 CLR
22:37 7.1 °C 5.4 °C 1011.7 hPa Calm     89 % 0.0 mm 0.0 W/m2 CLR
22:42 7.1 °C 5.4 °C 1011.4 hPa Calm     89 % 0.0 mm 0.0 W/m2 CLR
22:47 7.7 °C 5.9 °C 1011.4 hPa West 14.8 km/h 14.8 km/h 89 % 0.0 mm 0.0 W/m2 CLR
22:52 8.3 °C 6.1 °C 1011.4 hPa West 16.7 km/h 16.7 km/h 86 % 0.0 mm 0.0 W/m2 CLR
22:57 8.5 °C 5.9 °C 1011.4 hPa West 18.5 km/h 18.5 km/h 84 % 0.0 mm 0.0 W/m2 CLR
23:02 8.6 °C 5.7 °C 1011.7 hPa WNW 13.0 km/h 13.0 km/h 82 % 0.0 mm 0.0 W/m2 CLR
23:07 8.6 °C 5.6 °C 1011.7 hPa WNW 22.2 km/h 22.2 km/h 81 % 0.0 mm 0.0 W/m2 CLR
23:12 8.7 °C 5.4 °C 1011.7 hPa West 27.8 km/h 27.8 km/h 80 % 0.0 mm 0.0 W/m2 CLR
23:18 8.7 °C 5.4 °C 1011.7 hPa West 22.2 km/h 22.2 km/h 80 % 0.0 mm 0.0 W/m2 CLR
23:23 8.7 °C 5.8 °C 1011.7 hPa West 22.2 km/h 22.2 km/h 82 % 0.0 mm 0.0 W/m2 CLR
23:28 8.6 °C 5.9 °C 1011.7 hPa West 22.5 km/h 22.5 km/h 83 % 0.0 mm 0.0 W/m2 CLR
23:33 8.6 °C 6.2 °C 1011.7 hPa WNW 22.2 km/h 22.2 km/h 85 % 0.0 mm 0.0 W/m2 CLR
23:38 8.5 °C 6.3 °C 1011.7 hPa WNW 22.5 km/h 22.5 km/h 86 % 0.0 mm 0.0 W/m2 CLR
23:43 8.4 °C 6.2 °C 1011.7 hPa WNW 22.2 km/h 22.2 km/h 86 % 0.0 mm 0.0 W/m2 CLR
23:49 8.4 °C 6.2 °C 1011.7 hPa WNW 24.1 km/h 24.1 km/h 86 % 0.0 mm 0.0 W/m2 CLR
23:54 8.3 °C 6.1 °C 1012.1 hPa WNW 24.1 km/h 24.1 km/h 86 % 0.0 mm 0.0 W/m2 CLR
23:55 8.3 °C 6.1 °C 1011.7 hPa WNW 27.8 km/h 27.8 km/h 86 % 0.0 mm 0.0 W/m2 CLR
23:58 8.3 °C 6.1 °C 1011.7 hPa WNW 25.9 km/h 25.9 km/h 86 % 0.0 mm 0.0 W/m2 CLR
Lo Temps de Massalio
Compliments of Weather Underground - 1.25 mb